< < Back
Terminal Aerodrome Forecast


Current Version              Previous Versions:   1  2  3  4  5  6  7  8  9  

Terminal Aerodrome Forecast

157
FTUS42 KCHS 010500
TAFCHS
TAF
KCHS 010520Z 0106/0206 VRB03KT P6SM SCT015 SCT250
     FM011900 17010KT P6SM SCT035 SCT250
     FM020100 20005KT P6SM FEW025 SCT250=



Latest METAR

465
SAUS80 KWBC 011900 RRI
MTRCHS
METAR KCHS 011856Z 15008KT 10SM SCT040TCU SCT200 33/24 A3008 RMK AO2
SLP186 TCU N-NE T03330244 $


USA.gov is the U.S. government's official web portal to all federal, state and local government web resources and services.